createdAt,value
2022-07-26T00:01:17.103Z,100101.28
2022-07-26T00:03:45.197Z,100099.44
2022-07-26T00:06:13.349Z,100096.59
2022-07-26T00:08:41.297Z,100096.38
2022-07-26T00:11:09.278Z,100100.00
2022-07-26T00:13:38.621Z,100109.25
2022-07-26T00:16:07.747Z,100121.53
2022-07-26T00:18:35.759Z,100113.59
2022-07-26T00:21:03.881Z,100119.34
2022-07-26T00:23:35.060Z,100115.63
2022-07-26T00:26:02.955Z,100126.38
2022-07-26T00:28:31.185Z,100132.00
2022-07-26T00:31:01.033Z,100135.09
2022-07-26T00:33:29.264Z,100133.94
2022-07-26T00:35:57.451Z,100132.56
2022-07-26T00:38:25.485Z,100134.25
2022-07-26T00:40:54.549Z,100133.09
2022-07-26T00:43:22.514Z,100138.13
2022-07-26T00:45:50.897Z,100130.03
2022-07-26T00:48:20.282Z,100137.00
2022-07-26T00:50:48.388Z,100142.44
2022-07-26T00:53:16.682Z,100143.69
2022-07-26T00:55:44.693Z,100138.19
2022-07-26T00:58:13.499Z,100136.94
2022-07-26T01:00:41.666Z,100142.13
2022-07-26T01:03:10.225Z,100147.03
2022-07-26T01:05:39.567Z,100154.31
2022-07-26T01:08:07.749Z,100147.44
2022-07-26T01:10:35.735Z,100141.59
2022-07-26T01:13:03.593Z,100153.69
2022-07-26T01:15:31.560Z,100157.50
2022-07-26T01:17:59.520Z,100159.88
2022-07-26T01:20:27.571Z,100159.03
2022-07-26T01:22:56.915Z,100159.03
2022-07-26T01:25:31.942Z,100158.31
2022-07-26T01:28:00.034Z,100163.63
2022-07-26T01:30:28.482Z,100155.53
2022-07-26T01:32:56.727Z,100157.47
2022-07-26T01:35:24.653Z,100161.81
2022-07-26T01:37:58.468Z,100161.66
2022-07-26T01:40:26.570Z,100166.84
2022-07-26T01:42:54.585Z,100157.38
2022-07-26T01:45:22.686Z,100162.63
2022-07-26T01:47:51.088Z,100175.75
2022-07-26T01:50:19.569Z,100171.72
2022-07-26T01:52:47.705Z,100176.75
2022-07-26T01:55:17.093Z,100180.50
2022-07-26T01:57:46.184Z,100179.25
2022-07-26T02:00:15.226Z,100186.50
2022-07-26T02:02:43.499Z,100183.13
2022-07-26T02:05:12.539Z,100187.44
2022-07-26T02:07:44.710Z,100183.91
2022-07-26T02:10:14.637Z,100179.34
2022-07-26T02:12:44.410Z,100180.59
2022-07-26T02:15:14.241Z,100175.97
2022-07-26T02:17:42.917Z,100185.63
2022-07-26T02:20:11.922Z,100182.84
2022-07-26T02:22:39.893Z,100190.91
2022-07-26T02:25:08.285Z,100192.72
2022-07-26T02:27:36.379Z,100182.28
2022-07-26T02:30:06.352Z,100184.22
2022-07-26T02:32:34.521Z,100184.78
2022-07-26T02:35:02.408Z,100189.53
2022-07-26T02:37:30.488Z,100191.72
2022-07-26T02:40:05.893Z,100185.78
2022-07-26T02:42:33.793Z,100189.41
2022-07-26T02:45:01.888Z,100181.47
2022-07-26T02:47:32.915Z,100186.34
2022-07-26T02:50:01.077Z,100182.69
2022-07-26T02:52:29.031Z,100185.63
2022-07-26T02:54:58.062Z,100186.81
2022-07-26T02:57:26.021Z,100179.84
2022-07-26T02:59:53.897Z,100179.53
2022-07-26T03:02:21.909Z,100180.38
2022-07-26T03:04:52.151Z,100183.00
2022-07-26T03:07:20.013Z,100183.81
2022-07-26T03:09:47.941Z,100182.28
2022-07-26T03:12:17.180Z,100191.63
2022-07-26T03:14:45.422Z,100182.00
2022-07-26T03:17:13.551Z,100187.41
2022-07-26T03:19:41.580Z,100185.03
2022-07-26T03:22:11.727Z,100190.00
2022-07-26T03:24:39.666Z,100193.56
2022-07-26T03:27:07.568Z,100197.28
2022-07-26T03:29:35.525Z,100194.75
2022-07-26T03:32:04.459Z,100196.97
2022-07-26T03:34:32.479Z,100197.09
2022-07-26T03:37:00.423Z,100187.66
2022-07-26T03:39:29.974Z,100185.16
2022-07-26T03:41:57.820Z,100188.31
2022-07-26T03:44:25.793Z,100190.56
2022-07-26T03:46:53.788Z,100193.47
2022-07-26T03:49:21.738Z,100193.25
2022-07-26T03:51:49.963Z,100191.53
2022-07-26T03:54:17.883Z,100194.31
2022-07-26T03:56:46.310Z,100194.31
2022-07-26T03:59:14.301Z,100198.81
2022-07-26T04:01:43.481Z,100197.69
2022-07-26T04:04:12.611Z,100204.56
2022-07-26T04:06:41.981Z,100203.66
2022-07-26T04:09:11.320Z,100209.69
2022-07-26T04:11:40.063Z,100205.84
2022-07-26T04:14:10.353Z,100213.19
2022-07-26T04:16:43.155Z,100210.78
2022-07-26T04:19:11.619Z,100216.66
2022-07-26T04:21:39.747Z,100219.88
2022-07-26T04:24:08.622Z,100221.84
2022-07-26T04:26:36.682Z,100222.31
2022-07-26T04:29:04.701Z,100225.31
2022-07-26T04:31:36.643Z,100220.03
2022-07-26T04:34:04.958Z,100228.47
2022-07-26T04:36:33.389Z,100226.69
2022-07-26T04:39:01.534Z,100234.59
2022-07-26T04:41:29.414Z,100236.03
2022-07-26T04:43:58.059Z,100234.66
2022-07-26T04:46:26.143Z,100245.59
2022-07-26T04:48:55.557Z,100242.06
2022-07-26T04:51:23.637Z,100244.38
2022-07-26T04:53:51.883Z,100249.00
2022-07-26T04:56:19.702Z,100250.22
2022-07-26T04:58:47.941Z,100246.06
2022-07-26T05:01:15.884Z,100247.38
2022-07-26T05:03:43.937Z,100244.03
2022-07-26T05:06:13.552Z,100244.75
2022-07-26T05:08:43.491Z,100254.81
2022-07-26T05:11:11.391Z,100256.03
2022-07-26T05:13:39.317Z,100256.03
2022-07-26T05:16:11.662Z,100261.03
2022-07-26T05:18:45.938Z,100265.63
2022-07-26T05:21:19.509Z,100259.72
2022-07-26T05:23:47.521Z,100268.34
2022-07-26T05:26:15.857Z,100269.75
2022-07-26T05:28:43.926Z,100277.25
2022-07-26T05:31:12.022Z,100276.38
2022-07-26T05:33:40.034Z,100278.47
2022-07-26T05:36:08.317Z,100277.88
2022-07-26T05:38:37.698Z,100283.47
2022-07-26T05:41:06.092Z,100278.06
2022-07-26T05:43:41.565Z,100285.22
2022-07-26T05:46:11.441Z,100284.16
2022-07-26T05:48:39.988Z,100280.81
2022-07-26T05:51:08.139Z,100282.75
2022-07-26T05:53:38.469Z,100290.34
2022-07-26T05:56:07.563Z,100293.69
2022-07-26T05:58:35.647Z,100288.91
2022-07-26T06:01:03.488Z,100289.00
2022-07-26T06:03:32.355Z,100294.25
2022-07-26T06:06:00.611Z,100293.81
2022-07-26T06:08:28.924Z,100284.44
2022-07-26T06:10:59.102Z,100297.91
2022-07-26T06:13:27.184Z,100291.72
2022-07-26T06:15:57.460Z,100298.09
2022-07-26T06:18:25.860Z,100295.22
2022-07-26T06:20:54.183Z,100288.53
2022-07-26T06:23:30.989Z,100292.97
2022-07-26T06:26:05.303Z,100292.41
2022-07-26T06:28:33.827Z,100294.97
2022-07-26T06:31:02.091Z,100291.75
2022-07-26T06:33:30.414Z,100295.94
2022-07-26T06:35:58.431Z,100305.13
2022-07-26T06:38:26.468Z,100305.56
2022-07-26T06:40:54.451Z,100303.41
2022-07-26T06:43:23.888Z,100300.38
2022-07-26T06:45:52.125Z,100304.56
2022-07-26T06:48:21.004Z,100305.66
2022-07-26T06:50:50.166Z,100308.59
2022-07-26T06:53:18.043Z,100308.50
2022-07-26T06:55:46.034Z,100311.13
2022-07-26T06:58:14.472Z,100306.31
2022-07-26T07:00:51.053Z,100307.19
2022-07-26T07:03:19.624Z,100310.13
2022-07-26T07:05:50.678Z,100314.72
2022-07-26T07:08:18.774Z,100313.72
2022-07-26T07:10:48.217Z,100317.72
2022-07-26T07:13:21.076Z,100307.03
2022-07-26T07:15:50.527Z,100313.88
2022-07-26T07:18:19.336Z,100304.59
2022-07-26T07:20:48.270Z,100309.75
2022-07-26T07:23:17.295Z,100304.84
2022-07-26T07:25:45.158Z,100306.53
2022-07-26T07:28:13.426Z,100306.00
2022-07-26T07:30:41.404Z,100308.78
2022-07-26T07:33:22.707Z,100300.69
2022-07-26T07:35:52.277Z,100304.97
2022-07-26T07:38:20.768Z,100291.06
2022-07-26T07:40:50.791Z,100305.03
2022-07-26T07:43:18.750Z,100298.06
2022-07-26T07:45:48.496Z,100299.69
2022-07-26T07:48:18.700Z,100294.53
2022-07-26T07:50:47.280Z,100297.28
2022-07-26T07:53:15.873Z,100301.03
2022-07-26T07:55:46.218Z,100296.84
2022-07-26T07:58:17.296Z,100299.06
2022-07-26T08:00:45.666Z,100297.66
2022-07-26T08:03:18.402Z,100290.88
2022-07-26T08:05:50.935Z,100290.16
2022-07-26T08:08:22.091Z,100285.66
2022-07-26T08:10:52.986Z,100297.09
2022-07-26T08:13:22.846Z,100291.22
2022-07-26T08:15:51.614Z,100282.22
2022-07-26T08:18:22.553Z,100290.88
2022-07-26T08:20:53.362Z,100286.13
2022-07-26T08:23:22.912Z,100287.19
2022-07-26T08:26:01.885Z,100296.22
2022-07-26T08:28:51.163Z,100293.66
2022-07-26T08:31:21.658Z,100288.81
2022-07-26T08:33:50.061Z,100288.47
2022-07-26T08:36:20.821Z,100294.19
2022-07-26T08:38:49.483Z,100300.59
2022-07-26T08:41:20.313Z,100301.88
2022-07-26T08:43:52.623Z,100303.16
2022-07-26T08:46:28.374Z,100301.63
2022-07-26T08:48:58.145Z,100290.38
2022-07-26T08:51:32.949Z,100301.41
2022-07-26T08:54:05.817Z,100294.97
2022-07-26T08:56:36.520Z,100299.69
2022-07-26T08:59:07.442Z,100300.66
2022-07-26T09:01:38.630Z,100302.66
2022-07-26T09:04:30.994Z,100304.25
2022-07-26T09:07:07.674Z,100308.94
2022-07-26T09:09:37.488Z,100305.31
2022-07-26T09:12:21.285Z,100301.50
2022-07-26T09:14:57.244Z,100310.56
2022-07-26T09:17:43.306Z,100316.41
2022-07-26T09:20:14.383Z,100317.06
2022-07-26T09:23:04.866Z,100303.56
2022-07-26T09:25:36.632Z,100303.97
2022-07-26T09:28:23.267Z,100298.75
2022-07-26T09:30:54.301Z,100301.66
2022-07-26T09:33:24.763Z,100303.91
2022-07-26T09:36:06.729Z,100311.28
2022-07-26T09:38:43.767Z,100313.28
2022-07-26T09:41:20.568Z,100296.28
2022-07-26T09:43:53.762Z,100310.81
2022-07-26T09:46:26.134Z,100314.78
2022-07-26T09:49:12.327Z,100312.66
2022-07-26T09:51:46.087Z,100311.31
2022-07-26T09:54:19.917Z,100304.59
2022-07-26T09:56:54.179Z,100298.09
2022-07-26T09:59:24.622Z,100305.84
2022-07-26T10:01:54.175Z,100297.75
2022-07-26T10:04:26.998Z,100305.34
2022-07-26T10:06:57.826Z,100295.13
2022-07-26T10:09:35.523Z,100286.88
2022-07-26T10:12:09.699Z,100291.47
2022-07-26T10:14:46.813Z,100311.72
2022-07-26T10:17:43.211Z,100306.00
2022-07-26T10:20:32.592Z,100287.72
2022-07-26T10:23:03.394Z,100286.78
2022-07-26T10:25:49.509Z,100297.13
2022-07-26T10:28:28.679Z,100299.91
2022-07-26T10:31:37.992Z,100305.16
2022-07-26T10:34:06.630Z,100307.47
2022-07-26T10:36:37.014Z,100297.78
2022-07-26T10:39:10.031Z,100307.59
2022-07-26T10:41:47.020Z,100303.00
2022-07-26T10:44:22.154Z,100291.22
2022-07-26T10:47:12.065Z,100289.75
2022-07-26T10:49:42.288Z,100289.66
2022-07-26T10:52:16.028Z,100285.44
2022-07-26T10:55:20.435Z,100293.72
2022-07-26T10:57:50.310Z,100292.34
2022-07-26T11:00:28.080Z,100287.34
2022-07-26T11:02:59.089Z,100290.44
2022-07-26T11:05:32.453Z,100283.81
2022-07-26T11:08:08.079Z,100277.25
2022-07-26T11:10:38.350Z,100276.97
2022-07-26T11:13:16.877Z,100280.94
2022-07-26T11:15:47.892Z,100278.28
2022-07-26T11:18:28.093Z,100276.50
2022-07-26T11:20:59.005Z,100271.38
2022-07-26T11:23:33.684Z,100279.50
2022-07-26T11:26:13.796Z,100275.13
2022-07-26T11:29:04.026Z,100279.28
2022-07-26T11:31:50.924Z,100279.16
2022-07-26T11:34:29.526Z,100276.63
2022-07-26T11:37:00.780Z,100272.84
2022-07-26T11:39:31.464Z,100283.94
2022-07-26T11:42:02.126Z,100279.56
2022-07-26T11:44:32.684Z,100281.53
2022-07-26T11:47:11.161Z,100272.66
2022-07-26T11:52:31.056Z,100268.69
2022-07-26T11:54:59.170Z,100277.97
2022-07-26T11:57:30.339Z,100286.47
2022-07-26T12:00:02.049Z,100285.44
2022-07-26T12:02:39.981Z,100285.84
2022-07-26T12:05:20.389Z,100280.22
2022-07-26T12:07:59.822Z,100277.47
2022-07-26T12:10:28.941Z,100276.97
2022-07-26T12:13:16.812Z,100267.41
2022-07-26T12:15:48.754Z,100271.78
2022-07-26T12:18:24.708Z,100271.41
2022-07-26T12:21:05.001Z,100268.56
2022-07-26T12:23:44.629Z,100268.88
2022-07-26T12:26:24.588Z,100275.06
2022-07-26T12:28:53.770Z,100263.31
2022-07-26T12:31:27.946Z,100267.19
2022-07-26T12:33:59.416Z,100268.31
2022-07-26T12:36:38.783Z,100246.78
2022-07-26T12:39:12.649Z,100256.19
2022-07-26T12:41:41.574Z,100253.41
2022-07-26T12:44:12.612Z,100251.25
2022-07-26T12:46:44.847Z,100252.81
2022-07-26T12:49:13.732Z,100249.50
2022-07-26T12:51:41.893Z,100249.41
2022-07-26T12:54:10.311Z,100253.44
2022-07-26T12:56:38.383Z,100251.38
2022-07-26T12:59:08.618Z,100261.28
2022-07-26T13:01:36.909Z,100251.97
2022-07-26T13:04:08.898Z,100247.59
2022-07-26T13:06:40.832Z,100251.78
2022-07-26T13:09:09.532Z,100233.66
2022-07-26T13:11:37.632Z,100235.41
2022-07-26T13:14:05.654Z,100240.69
2022-07-26T13:16:33.689Z,100236.50
2022-07-26T13:19:01.709Z,100227.72
2022-07-26T13:21:33.615Z,100234.66
2022-07-26T13:24:02.799Z,100238.06
2022-07-26T13:26:30.779Z,100237.94
2022-07-26T13:28:59.442Z,100226.19
2022-07-26T13:31:28.017Z,100224.91
2022-07-26T13:33:57.297Z,100236.19
2022-07-26T13:36:25.390Z,100230.13
2022-07-26T13:38:54.926Z,100224.00
2022-07-26T13:41:22.905Z,100218.00
2022-07-26T13:43:51.249Z,100228.03
2022-07-26T13:46:19.373Z,100218.41
2022-07-26T13:49:00.551Z,100229.19
2022-07-26T13:51:50.223Z,100219.50
2022-07-26T13:54:24.103Z,100217.97
2022-07-26T13:56:53.774Z,100211.91
2022-07-26T13:59:21.877Z,100210.03
2022-07-26T14:01:50.010Z,100216.28
2022-07-26T14:04:20.157Z,100214.06
2022-07-26T14:06:48.423Z,100213.03
2022-07-26T14:09:17.855Z,100207.72
2022-07-26T14:11:48.278Z,100215.25
2022-07-26T14:14:16.573Z,100208.88
2022-07-26T14:16:48.030Z,100205.25
2022-07-26T14:19:17.531Z,100210.66
2022-07-26T14:21:58.788Z,100204.28
2022-07-26T14:24:33.725Z,100204.50
2022-07-26T14:27:03.480Z,100205.75
2022-07-26T14:29:33.560Z,100199.06
2022-07-26T14:32:01.713Z,100208.88
2022-07-26T14:34:33.902Z,100194.88
2022-07-26T14:37:02.260Z,100200.41
2022-07-26T14:39:43.643Z,100205.13
2022-07-26T14:42:13.255Z,100206.69
2022-07-26T14:44:44.607Z,100200.59
2022-07-26T14:47:13.114Z,100198.84
2022-07-26T14:49:41.174Z,100196.97
2022-07-26T14:52:10.702Z,100193.75
2022-07-26T14:54:38.614Z,100190.44
2022-07-26T14:57:06.578Z,100195.25
2022-07-26T14:59:35.981Z,100202.28
2022-07-26T15:02:06.037Z,100199.00
2022-07-26T15:04:34.550Z,100197.38
2022-07-26T15:07:02.952Z,100193.91
2022-07-26T15:09:30.936Z,100197.69
2022-07-26T15:11:59.662Z,100195.72
2022-07-26T15:14:28.179Z,100187.81
2022-07-26T15:16:57.575Z,100191.03
2022-07-26T15:19:26.072Z,100184.03
2022-07-26T15:21:55.161Z,100183.34
2022-07-26T15:24:23.658Z,100184.78
2022-07-26T15:26:52.661Z,100185.06
2022-07-26T15:29:20.711Z,100183.53
2022-07-26T15:31:49.649Z,100177.59
2022-07-26T15:34:19.843Z,100172.69
2022-07-26T15:36:48.326Z,100171.06
2022-07-26T15:39:17.813Z,100165.63
2022-07-26T15:41:47.322Z,100171.50
2022-07-26T15:44:17.294Z,100165.75
2022-07-26T15:46:47.968Z,100169.78
2022-07-26T15:49:17.812Z,100169.16
2022-07-26T15:51:47.547Z,100163.88
2022-07-26T15:54:16.106Z,100160.28
2022-07-26T15:56:44.466Z,100156.91
2022-07-26T15:59:12.389Z,100166.22
2022-07-26T16:01:40.315Z,100168.72
2022-07-26T16:04:08.711Z,100164.38
2022-07-26T16:06:37.920Z,100176.19
2022-07-26T16:09:22.927Z,100165.59
2022-07-26T16:11:51.884Z,100180.44
2022-07-26T16:14:20.840Z,100168.44
2022-07-26T16:16:49.535Z,100162.56
2022-07-26T16:19:17.566Z,100164.97
2022-07-26T16:21:45.614Z,100165.16
2022-07-26T16:24:15.238Z,100154.41
2022-07-26T16:26:43.691Z,100149.78
2022-07-26T16:29:12.144Z,100153.88
2022-07-26T16:31:41.619Z,100150.00
2022-07-26T16:34:10.530Z,100141.38
2022-07-26T16:36:39.007Z,100148.97
2022-07-26T16:39:07.891Z,100147.03
2022-07-26T16:41:38.083Z,100147.28
2022-07-26T16:44:06.595Z,100145.50
2022-07-26T16:46:34.604Z,100139.53
2022-07-26T16:49:03.008Z,100145.03
2022-07-26T16:51:33.023Z,100148.59
2022-07-26T16:54:01.091Z,100154.75
2022-07-26T16:56:29.715Z,100154.81
2022-07-26T16:58:59.517Z,100148.47
2022-07-26T17:01:27.560Z,100149.41
2022-07-26T17:03:55.538Z,100154.81
2022-07-26T17:06:24.894Z,100152.44
2022-07-26T17:08:53.267Z,100161.34
2022-07-26T17:11:21.455Z,100153.97
2022-07-26T17:13:49.878Z,100159.34
2022-07-26T17:16:21.389Z,100156.66
2022-07-26T17:18:53.433Z,100158.16
2022-07-26T17:21:21.849Z,100167.47
2022-07-26T17:23:52.458Z,100156.19
2022-07-26T17:26:21.126Z,100158.59
2022-07-26T17:28:49.091Z,100161.00
2022-07-26T17:31:17.497Z,100156.34
2022-07-26T17:33:48.000Z,100153.81
2022-07-26T17:36:24.632Z,100152.78
2022-07-26T17:38:52.766Z,100158.59
2022-07-26T17:41:24.227Z,100150.28
2022-07-26T17:44:02.968Z,100154.38
2022-07-26T17:46:33.400Z,100158.56
2022-07-26T17:49:07.356Z,100160.31
2022-07-26T17:51:35.892Z,100164.81
2022-07-26T17:54:04.484Z,100159.34
2022-07-26T17:56:33.358Z,100164.03
2022-07-26T17:59:01.791Z,100162.00
2022-07-26T18:01:30.236Z,100163.13
2022-07-26T18:03:58.557Z,100163.66
2022-07-26T18:06:29.342Z,100164.13
2022-07-26T18:08:57.382Z,100166.56
2022-07-26T18:11:25.639Z,100166.41
2022-07-26T18:13:54.785Z,100165.56
2022-07-26T18:16:23.234Z,100161.88
2022-07-26T18:18:52.226Z,100159.94
2022-07-26T18:21:20.257Z,100166.94
2022-07-26T18:24:15.448Z,100165.59
2022-07-26T18:26:38.214Z,100164.31
2022-07-26T18:29:06.810Z,100171.31
2022-07-26T18:31:35.670Z,100170.66
2022-07-26T18:34:06.611Z,100165.16
2022-07-26T18:36:35.468Z,100161.69
2022-07-26T18:39:05.212Z,100168.13
2022-07-26T18:41:34.403Z,100164.78
2022-07-26T18:44:03.234Z,100173.09
2022-07-26T18:46:31.451Z,100172.59
2022-07-26T18:49:02.382Z,100167.13
2022-07-26T18:51:31.861Z,100174.13
2022-07-26T18:54:00.425Z,100180.28
2022-07-26T18:56:30.668Z,100175.94
2022-07-26T18:58:58.818Z,100185.06
2022-07-26T19:01:26.891Z,100186.44
2022-07-26T19:03:55.562Z,100193.47
2022-07-26T19:06:24.690Z,100195.59
2022-07-26T19:08:52.930Z,100196.41
2022-07-26T19:11:21.194Z,100191.88
2022-07-26T19:13:52.052Z,100201.53
2022-07-26T19:16:20.885Z,100202.47
2022-07-26T19:18:53.788Z,100199.91
2022-07-26T19:21:25.413Z,100204.81
2022-07-26T19:23:53.456Z,100214.78
2022-07-26T19:26:23.758Z,100209.75
2022-07-26T19:28:53.754Z,100218.88
2022-07-26T19:31:24.593Z,100219.91
2022-07-26T19:33:53.152Z,100225.88
2022-07-26T19:36:26.081Z,100235.72
2022-07-26T19:38:55.710Z,100245.78
2022-07-26T19:41:24.984Z,100243.69
2022-07-26T19:43:54.778Z,100259.69
2022-07-26T19:46:23.292Z,100260.16
2022-07-26T19:48:52.061Z,100262.06
2022-07-26T19:51:20.429Z,100273.31
2022-07-26T19:53:48.568Z,100267.72
2022-07-26T19:56:17.120Z,100270.94
2022-07-26T19:58:46.148Z,100276.06
2022-07-26T20:01:16.595Z,100285.09
2022-07-26T20:03:44.569Z,100273.03
2022-07-26T20:06:14.260Z,100276.38
2022-07-26T20:08:42.647Z,100280.63
2022-07-26T20:11:11.650Z,100281.00
2022-07-26T20:13:39.805Z,100282.50
2022-07-26T20:16:09.006Z,100285.31
2022-07-26T20:18:38.551Z,100284.84
2022-07-26T20:21:06.574Z,100290.63
2022-07-26T20:23:35.507Z,100289.28
2022-07-26T20:26:06.167Z,100295.38
2022-07-26T20:28:34.630Z,100303.97
2022-07-26T20:31:03.123Z,100300.16
2022-07-26T20:33:32.006Z,100301.84
2022-07-26T20:36:01.655Z,100300.03
2022-07-26T20:38:29.633Z,100300.88
2022-07-26T20:40:57.447Z,100314.78
2022-07-26T20:43:29.208Z,100299.06
2022-07-26T20:46:00.356Z,100305.69
2022-07-26T20:48:28.347Z,100309.28
2022-07-26T20:50:56.485Z,100312.34
2022-07-26T20:53:26.355Z,100306.63
2022-07-26T20:55:54.328Z,100321.63
2022-07-26T20:58:22.246Z,100318.00
2022-07-26T21:00:51.121Z,100316.19
2022-07-26T21:03:19.187Z,100318.94
2022-07-26T21:05:47.750Z,100320.13
2022-07-26T21:08:15.877Z,100326.88
2022-07-26T21:10:45.969Z,100330.44
2022-07-26T21:13:13.910Z,100322.41
2022-07-26T21:15:42.844Z,100330.38
2022-07-26T21:18:12.310Z,100327.19
2022-07-26T21:20:41.356Z,100331.16
2022-07-26T21:23:17.445Z,100336.13
2022-07-26T21:25:47.796Z,100343.44
2022-07-26T21:28:15.951Z,100334.72
2022-07-26T21:30:43.857Z,100340.47
2022-07-26T21:33:11.882Z,100335.25
2022-07-26T21:35:41.050Z,100337.34
2022-07-26T21:38:09.310Z,100338.47
2022-07-26T21:40:37.475Z,100339.81
2022-07-26T21:43:06.742Z,100347.34
2022-07-26T21:45:35.656Z,100348.31
2022-07-26T21:48:03.865Z,100347.06
2022-07-26T21:50:31.983Z,100350.66
2022-07-26T21:53:01.291Z,100347.94
2022-07-26T21:55:30.125Z,100348.34
2022-07-26T21:57:57.976Z,100350.28
2022-07-26T22:00:27.493Z,100353.19
2022-07-26T22:02:55.498Z,100345.56
2022-07-26T22:05:37.713Z,100346.81
2022-07-26T22:08:08.188Z,100348.66
2022-07-26T22:10:44.001Z,100350.19
2022-07-26T22:13:16.329Z,100347.81
2022-07-26T22:15:46.090Z,100344.88
2022-07-26T22:18:14.825Z,100344.63
2022-07-26T22:20:44.089Z,100343.78
2022-07-26T22:23:13.733Z,100346.84
2022-07-26T22:25:42.141Z,100346.84
2022-07-26T22:28:11.504Z,100354.25
2022-07-26T22:30:40.343Z,100347.69
2022-07-26T22:33:11.656Z,100342.66
2022-07-26T22:35:39.725Z,100348.78
2022-07-26T22:38:09.858Z,100347.06
2022-07-26T22:40:38.981Z,100347.41
2022-07-26T22:43:08.095Z,100349.63
2022-07-26T22:45:36.124Z,100348.16
2022-07-26T22:48:05.757Z,100344.69
2022-07-26T22:50:35.271Z,100350.13
2022-07-26T22:53:03.520Z,100350.97
2022-07-26T22:55:32.752Z,100345.94
2022-07-26T22:58:01.123Z,100350.81
2022-07-26T23:00:30.156Z,100345.66
2022-07-26T23:02:58.187Z,100353.19
2022-07-26T23:05:34.598Z,100348.00
2022-07-26T23:11:04.114Z,100353.59
2022-07-26T23:13:32.091Z,100352.56
2022-07-26T23:16:01.666Z,100354.38
2022-07-26T23:18:30.549Z,100355.72
2022-07-26T23:20:58.836Z,100358.25
2022-07-26T23:23:29.320Z,100359.03
2022-07-26T23:25:59.292Z,100357.19
2022-07-26T23:28:37.601Z,100355.84
2022-07-26T23:31:08.242Z,100352.81
2022-07-26T23:33:50.913Z,100352.28
2022-07-26T23:36:34.596Z,100355.16
2022-07-26T23:39:04.558Z,100353.97
2022-07-26T23:41:33.063Z,100350.94
2022-07-26T23:44:01.260Z,100347.63
2022-07-26T23:46:29.281Z,100347.09
2022-07-26T23:48:58.537Z,100353.97
2022-07-26T23:51:26.953Z,100359.66
2022-07-26T23:53:54.974Z,100350.91
2022-07-26T23:56:24.432Z,100355.22
2022-07-26T23:58:52.422Z,100354.00
